Terminal Aerodrome Forecast
Issued by NWS

Current Version | Previous Version | Graphics & Text | Print | Product List | Glossary On
Versions: 1 2 3 4 5 6 7 8 9 10 11 12 13 14 15 16 17 18 19
000
FTUS41 KILN 072300
TAFLCK
TAF
KLCK 072325Z 0800/0824 21010KT P6SM VCSH BKN040
     FM081400 22012G20KT 5SM -TSRA BR VCTS OVC025CB
     FM081700 22012G24KT P6SM BKN035
     FM082000 24014G26KT P6SM VCTS BKN035CB=

USA.gov is the U.S. government's official web portal to all federal, state and local government web resources and services.